createdAt,value
2022-10-20T00:01:03.433Z,1012.8
2022-10-20T00:02:19.734Z,1012.8
2022-10-20T00:03:36.025Z,1012.8
2022-10-20T00:04:52.313Z,1012.7
2022-10-20T00:06:08.601Z,1012.8
2022-10-20T00:07:24.910Z,1012.8
2022-10-20T00:08:41.202Z,1012.7
2022-10-20T00:09:57.488Z,1012.7
2022-10-20T00:11:13.783Z,1012.7
2022-10-20T00:12:30.080Z,1012.7
2022-10-20T00:13:46.374Z,1012.7
2022-10-20T00:15:01.685Z,1012.6
2022-10-20T00:16:17.978Z,1012.6
2022-10-20T00:17:34.270Z,1012.5
2022-10-20T00:18:50.563Z,1012.5
2022-10-20T00:20:06.846Z,1012.5
2022-10-20T00:21:23.139Z,1012.5
2022-10-20T00:22:39.438Z,1012.5
2022-10-20T00:23:55.733Z,1012.5
2022-10-20T00:25:12.032Z,1012.5
2022-10-20T00:26:28.325Z,1012.5
2022-10-20T00:27:44.620Z,1012.5
2022-10-20T00:29:00.908Z,1012.5
2022-10-20T00:30:17.199Z,1012.4
2022-10-20T00:31:32.522Z,1012.5
2022-10-20T00:32:48.812Z,1012.4
2022-10-20T00:34:05.116Z,1012.5
2022-10-20T00:35:21.405Z,1012.5
2022-10-20T00:36:37.696Z,1012.5
2022-10-20T00:37:53.974Z,1012.4
2022-10-20T00:39:10.278Z,1012.4
2022-10-20T00:40:26.566Z,1012.4
2022-10-20T00:41:42.859Z,1012.4
2022-10-20T00:42:59.154Z,1012.4
2022-10-20T00:44:15.446Z,1012.4
2022-10-20T00:45:31.734Z,1012.4
2022-10-20T00:46:48.035Z,1012.3
2022-10-20T00:48:03.343Z,1012.3
2022-10-20T00:49:19.644Z,1012.3
2022-10-20T00:50:35.948Z,1012.3
2022-10-20T00:51:52.224Z,1012.3
2022-10-20T00:53:08.524Z,1012.3
2022-10-20T00:54:24.813Z,1012.2
2022-10-20T00:55:41.106Z,1012.2
2022-10-20T00:56:57.400Z,1012.2
2022-10-20T00:58:13.682Z,1012.1
2022-10-20T00:59:29.988Z,1012.1
2022-10-20T01:00:46.272Z,1012
2022-10-20T01:02:02.578Z,1012
2022-10-20T01:03:18.873Z,1012
2022-10-20T01:04:34.178Z,1012
2022-10-20T01:05:50.475Z,1011.9
2022-10-20T01:07:06.751Z,1011.9
2022-10-20T01:08:23.062Z,1011.9
2022-10-20T01:09:39.353Z,1011.9
2022-10-20T01:10:55.646Z,1011.8
2022-10-20T01:12:11.937Z,1011.9
2022-10-20T01:13:28.222Z,1011.9
2022-10-20T01:14:44.529Z,1011.8
2022-10-20T01:16:00.826Z,1011.9
2022-10-20T01:17:17.100Z,1011.8
2022-10-20T01:18:33.396Z,1011.8
2022-10-20T01:19:49.701Z,1011.8
2022-10-20T01:21:04.998Z,1011.9
2022-10-20T01:22:21.309Z,1011.8
2022-10-20T01:23:37.588Z,1011.8
2022-10-20T01:24:53.877Z,1011.8
2022-10-20T01:26:10.188Z,1011.8
2022-10-20T01:27:26.482Z,1011.7
2022-10-20T01:28:42.768Z,1011.8
2022-10-20T01:29:59.061Z,1011.7
2022-10-20T01:31:15.358Z,1011.7
2022-10-20T01:32:31.648Z,1011.7
2022-10-20T01:33:47.934Z,1011.7
2022-10-20T01:35:04.249Z,1011.7
2022-10-20T01:36:20.526Z,1011.6
2022-10-20T01:37:35.849Z,1011.7
2022-10-20T01:38:52.123Z,1011.6
2022-10-20T01:40:08.413Z,1011.5
2022-10-20T01:41:24.709Z,1011.5
2022-10-20T01:42:41.005Z,1011.5
2022-10-20T01:43:57.310Z,1011.4
2022-10-20T01:45:13.592Z,1011.4
2022-10-20T01:46:29.901Z,1011.4
2022-10-20T01:47:46.192Z,1011.4
2022-10-20T01:49:02.477Z,1011.4
2022-10-20T01:50:18.762Z,1011.3
2022-10-20T01:51:35.059Z,1011.3
2022-10-20T01:52:51.361Z,1011.3
2022-10-20T01:54:06.672Z,1011.3
2022-10-20T01:55:22.964Z,1011.3
2022-10-20T01:56:39.246Z,1011.3
2022-10-20T01:57:55.541Z,1011.3
2022-10-20T01:59:11.843Z,1011.3
2022-10-20T02:00:28.133Z,1011.3
2022-10-20T02:01:44.423Z,1011.2
2022-10-20T02:03:00.731Z,1011.2
2022-10-20T02:04:17.019Z,1011.2
2022-10-20T02:05:33.301Z,1011.2
2022-10-20T02:06:49.612Z,1011.2
2022-10-20T02:08:05.908Z,1011.2
2022-10-20T02:09:22.179Z,1011.1
2022-10-20T02:10:37.497Z,1011.1
2022-10-20T02:11:53.794Z,1011.1
2022-10-20T02:13:10.077Z,1011.1
2022-10-20T02:14:26.387Z,1011.1
2022-10-20T02:15:42.661Z,1011.1
2022-10-20T02:16:58.966Z,1011
2022-10-20T02:18:15.266Z,1011
2022-10-20T02:19:31.553Z,1011
2022-10-20T02:20:47.854Z,1011
2022-10-20T02:22:04.141Z,1011
2022-10-20T02:23:20.423Z,1011
2022-10-20T02:24:36.721Z,1010.9
2022-10-20T02:25:53.019Z,1010.9
2022-10-20T02:27:08.347Z,1010.9
2022-10-20T02:28:24.623Z,1010.9
2022-10-20T02:29:40.918Z,1010.9
2022-10-20T02:30:57.218Z,1010.9
2022-10-20T02:32:13.497Z,1010.8
2022-10-20T02:33:29.794Z,1010.8
2022-10-20T02:34:45.105Z,1010.8
2022-10-20T02:36:01.399Z,1010.8
2022-10-20T02:37:17.697Z,1010.8
2022-10-20T02:38:33.990Z,1010.8
2022-10-20T02:39:50.276Z,1010.8
2022-10-20T02:41:06.581Z,1010.8
2022-10-20T02:42:22.871Z,1010.8
2022-10-20T02:43:39.178Z,1010.7
2022-10-20T02:44:55.457Z,1010.7
2022-10-20T02:46:11.759Z,1010.7
2022-10-20T02:47:28.045Z,1010.8
2022-10-20T02:48:44.345Z,1010.8
2022-10-20T02:50:00.626Z,1010.8
2022-10-20T02:51:15.940Z,1010.8
2022-10-20T02:52:32.240Z,1010.8
2022-10-20T02:53:48.532Z,1010.7
2022-10-20T02:55:04.833Z,1010.7
2022-10-20T02:56:21.115Z,1010.7
2022-10-20T02:57:37.414Z,1010.7
2022-10-20T02:58:53.712Z,1010.7
2022-10-20T03:00:09.988Z,1010.7
2022-10-20T03:01:26.294Z,1010.7
2022-10-20T03:02:42.600Z,1010.7
2022-10-20T03:03:58.878Z,1010.7
2022-10-20T03:05:15.177Z,1010.7
2022-10-20T03:06:31.469Z,1010.7
2022-10-20T03:07:46.775Z,1010.7
2022-10-20T03:09:03.067Z,1010.7
2022-10-20T03:10:19.372Z,1010.8
2022-10-20T03:11:35.656Z,1010.7
2022-10-20T03:12:51.945Z,1010.7
2022-10-20T03:14:08.248Z,1010.7
2022-10-20T03:15:24.533Z,1010.7
2022-10-20T03:16:40.831Z,1010.6
2022-10-20T03:17:57.130Z,1010.7
2022-10-20T03:19:13.429Z,1010.6
2022-10-20T03:20:29.715Z,1010.6
2022-10-20T03:21:46.004Z,1010.6
2022-10-20T03:23:02.297Z,1010.6
2022-10-20T03:24:17.615Z,1010.6
2022-10-20T03:25:33.903Z,1010.6
2022-10-20T03:26:50.195Z,1010.6
2022-10-20T03:28:06.493Z,1010.6
2022-10-20T03:29:22.792Z,1010.5
2022-10-20T03:30:39.073Z,1010.6
2022-10-20T03:31:55.376Z,1010.5
2022-10-20T03:33:11.664Z,1010.5
2022-10-20T03:34:27.967Z,1010.4
2022-10-20T03:35:44.256Z,1010.4
2022-10-20T03:37:00.546Z,1010.4
2022-10-20T03:38:16.839Z,1010.4
2022-10-20T03:39:33.126Z,1010.4
2022-10-20T03:40:48.439Z,1010.5
2022-10-20T03:42:04.733Z,1010.5
2022-10-20T03:43:21.025Z,1010.5
2022-10-20T03:44:37.316Z,1010.5
2022-10-20T03:45:53.621Z,1010.5
2022-10-20T03:47:09.902Z,1010.5
2022-10-20T03:48:26.214Z,1010.5
2022-10-20T03:49:42.508Z,1010.5
2022-10-20T03:50:58.783Z,1010.4
2022-10-20T03:52:15.086Z,1010.4
2022-10-20T03:53:31.384Z,1010.4
2022-10-20T03:54:47.677Z,1010.4
2022-10-20T03:56:03.961Z,1010.3
2022-10-20T03:57:19.278Z,1010.3
2022-10-20T03:58:35.564Z,1010.3
2022-10-20T03:59:51.869Z,1010.3
2022-10-20T04:01:08.166Z,1010.3
2022-10-20T04:02:24.458Z,1010.3
2022-10-20T04:03:40.740Z,1010.2
2022-10-20T04:04:57.033Z,1010.2
2022-10-20T04:06:13.327Z,1010.2
2022-10-20T04:07:29.628Z,1010.1
2022-10-20T04:08:45.912Z,1010.1
2022-10-20T04:10:02.219Z,1010.1
2022-10-20T04:11:18.496Z,1010
2022-10-20T04:12:34.795Z,1010
2022-10-20T04:13:50.107Z,1010
2022-10-20T04:15:06.405Z,1010
2022-10-20T04:16:22.687Z,1010.1
2022-10-20T04:17:38.981Z,1010
2022-10-20T04:18:55.277Z,1010
2022-10-20T04:20:11.579Z,1010
2022-10-20T04:21:27.872Z,1010
2022-10-20T04:22:44.156Z,1009.9
2022-10-20T04:24:00.460Z,1009.9
2022-10-20T04:25:16.757Z,1009.9
2022-10-20T04:26:33.048Z,1009.9
2022-10-20T04:27:49.338Z,1009.9
2022-10-20T04:29:05.636Z,1009.9
2022-10-20T04:30:20.937Z,1009.9
2022-10-20T04:31:37.226Z,1009.9
2022-10-20T04:32:53.530Z,1009.9
2022-10-20T04:34:09.816Z,1009.9
2022-10-20T04:35:26.111Z,1009.9
2022-10-20T04:36:42.409Z,1010
2022-10-20T04:37:58.711Z,1009.9
2022-10-20T04:39:14.991Z,1010
2022-10-20T04:40:31.291Z,1010
2022-10-20T04:41:47.579Z,1009.9
2022-10-20T04:43:03.874Z,1009.9
2022-10-20T04:44:20.169Z,1009.9
2022-10-20T04:45:36.470Z,1009.9
2022-10-20T04:46:51.764Z,1009.9
2022-10-20T04:48:08.074Z,1009.9
2022-10-20T04:49:24.368Z,1009.9
2022-10-20T04:50:40.648Z,1009.9
2022-10-20T04:51:56.944Z,1009.9
2022-10-20T04:53:13.244Z,1009.8
2022-10-20T04:54:29.527Z,1009.8
2022-10-20T04:55:45.817Z,1009.8
2022-10-20T04:57:02.114Z,1009.7
2022-10-20T04:58:18.408Z,1009.7
2022-10-20T04:59:34.697Z,1009.7
2022-10-20T05:00:50.989Z,1009.7
2022-10-20T05:02:07.285Z,1009.7
2022-10-20T05:03:22.602Z,1009.7
2022-10-20T05:04:38.886Z,1009.7
2022-10-20T05:05:55.182Z,1009.7
2022-10-20T05:07:11.487Z,1009.7
2022-10-20T05:08:27.717Z,1009.7
2022-10-20T05:09:44.011Z,1009.7
2022-10-20T05:11:00.301Z,1009.7
2022-10-20T05:12:16.568Z,1009.7
2022-10-20T05:13:32.792Z,1009.7
2022-10-20T05:14:49.097Z,1009.7
2022-10-20T05:16:05.379Z,1009.7
2022-10-20T05:17:21.676Z,1009.7
2022-10-20T05:18:37.977Z,1009.6
2022-10-20T05:19:53.241Z,1009.6
2022-10-20T05:21:09.492Z,1009.7
2022-10-20T05:22:25.739Z,1009.6
2022-10-20T05:23:41.967Z,1009.6
2022-10-20T05:24:58.216Z,1009.6
2022-10-20T05:26:14.464Z,1009.6
2022-10-20T05:27:30.683Z,1009.6
2022-10-20T05:28:46.924Z,1009.5
2022-10-20T05:30:03.165Z,1009.5
2022-10-20T05:31:19.412Z,1009.6
2022-10-20T05:32:35.654Z,1009.6
2022-10-20T05:33:51.890Z,1009.5
2022-10-20T05:35:08.124Z,1009.6
2022-10-20T05:36:23.387Z,1009.5
2022-10-20T05:37:39.628Z,1009.6
2022-10-20T05:38:55.866Z,1009.5
2022-10-20T05:40:12.101Z,1009.5
2022-10-20T05:41:28.337Z,1009.5
2022-10-20T05:42:44.590Z,1009.5
2022-10-20T05:44:00.813Z,1009.6
2022-10-20T05:45:17.068Z,1009.6
2022-10-20T05:46:33.302Z,1009.6
2022-10-20T05:47:49.532Z,1009.6
2022-10-20T05:49:05.780Z,1009.6
2022-10-20T05:50:22.009Z,1009.6
2022-10-20T05:51:38.255Z,1009.6
2022-10-20T05:52:53.519Z,1009.6
2022-10-20T05:54:09.745Z,1009.6
2022-10-20T05:55:25.984Z,1009.6
2022-10-20T05:56:42.225Z,1009.6
2022-10-20T05:57:58.478Z,1009.6
2022-10-20T05:59:14.709Z,1009.5
2022-10-20T06:00:30.957Z,1009.5
2022-10-20T06:01:47.185Z,1009.5
2022-10-20T06:03:03.429Z,1009.5
2022-10-20T06:04:19.667Z,1009.5
2022-10-20T06:05:35.911Z,1009.6
2022-10-20T06:06:52.144Z,1009.7
2022-10-20T06:08:08.381Z,1009.7
2022-10-20T06:09:23.644Z,1009.8
2022-10-20T06:10:39.881Z,1009.8
2022-10-20T06:11:56.118Z,1009.9
2022-10-20T06:13:12.372Z,1010
2022-10-20T06:14:28.599Z,1009.9
2022-10-20T06:15:44.838Z,1009.9
2022-10-20T06:17:01.089Z,1009.8
2022-10-20T06:18:17.324Z,1009.9
2022-10-20T06:19:33.555Z,1009.9
2022-10-20T06:20:49.792Z,1009.9
2022-10-20T06:22:06.042Z,1009.9
2022-10-20T06:23:22.275Z,1009.9
2022-10-20T06:24:38.514Z,1010
2022-10-20T06:25:53.775Z,1009.9
2022-10-20T06:27:10.006Z,1009.9
2022-10-20T06:28:26.253Z,1009.9
2022-10-20T06:29:42.499Z,1009.9
2022-10-20T06:30:58.735Z,1009.9
2022-10-20T06:32:14.970Z,1009.8
2022-10-20T06:33:31.209Z,1009.8
2022-10-20T06:34:47.449Z,1009.8
2022-10-20T06:36:03.695Z,1009.9
2022-10-20T06:37:19.927Z,1009.9
2022-10-20T06:38:36.177Z,1009.8
2022-10-20T06:39:52.409Z,1009.8
2022-10-20T06:41:08.654Z,1009.8
2022-10-20T06:42:23.906Z,1009.8
2022-10-20T06:43:40.153Z,1009.8
2022-10-20T06:44:56.379Z,1009.9
2022-10-20T06:46:12.638Z,1009.9
2022-10-20T06:47:28.865Z,1009.8
2022-10-20T06:48:45.111Z,1009.8
2022-10-20T06:50:00.364Z,1009.8
2022-10-20T06:51:16.605Z,1009.8
2022-10-20T06:52:32.839Z,1009.8
2022-10-20T06:53:49.084Z,1009.8
2022-10-20T06:55:05.327Z,1009.8
2022-10-20T06:56:21.564Z,1009.8
2022-10-20T06:57:37.809Z,1009.8
2022-10-20T06:58:54.038Z,1009.7
2022-10-20T07:00:10.281Z,1009.8
2022-10-20T07:01:26.525Z,1009.8
2022-10-20T07:02:42.762Z,1009.7
2022-10-20T07:03:59.006Z,1009.7
2022-10-20T07:05:15.237Z,1009.8
2022-10-20T07:06:30.497Z,1009.8
2022-10-20T07:07:46.740Z,1009.7
2022-10-20T07:09:02.984Z,1009.7
2022-10-20T07:10:19.226Z,1009.7
2022-10-20T07:11:35.455Z,1009.7
2022-10-20T07:12:51.687Z,1009.7
2022-10-20T07:14:07.000Z,1009.8
2022-10-20T07:15:24.170Z,1009.7
2022-10-20T07:16:40.425Z,1009.7
2022-10-20T07:17:56.653Z,1009.8
2022-10-20T07:19:12.900Z,1009.7
2022-10-20T07:20:29.142Z,1009.8
2022-10-20T07:21:45.380Z,1009.8
2022-10-20T07:23:00.633Z,1009.8
2022-10-20T07:24:16.870Z,1009.8
2022-10-20T07:25:33.100Z,1009.7
2022-10-20T07:26:49.343Z,1009.7
2022-10-20T07:28:05.586Z,1009.7
2022-10-20T07:29:21.816Z,1009.6
2022-10-20T07:30:38.062Z,1009.6
2022-10-20T07:31:54.295Z,1009.6
2022-10-20T07:33:10.543Z,1009.5
2022-10-20T07:34:26.775Z,1009.6
2022-10-20T07:35:43.019Z,1009.5
2022-10-20T07:36:59.267Z,1009.5
2022-10-20T07:38:15.496Z,1009.5
2022-10-20T07:39:30.751Z,1009.5
2022-10-20T07:40:47.002Z,1009.5
2022-10-20T07:42:03.227Z,1009.4
2022-10-20T07:43:19.471Z,1009.4
2022-10-20T07:44:35.717Z,1009.3
2022-10-20T07:45:51.950Z,1009.3
2022-10-20T07:47:08.194Z,1009.4
2022-10-20T07:48:24.427Z,1009.3
2022-10-20T07:49:40.685Z,1009.4
2022-10-20T07:50:56.923Z,1009.3
2022-10-20T07:52:13.147Z,1009.3
2022-10-20T07:53:29.395Z,1009.3
2022-10-20T07:54:45.624Z,1009.3
2022-10-20T07:56:00.887Z,1009.3
2022-10-20T07:57:17.116Z,1009.3
2022-10-20T07:58:33.360Z,1009.3
2022-10-20T07:59:49.615Z,1009.3
2022-10-20T08:01:05.843Z,1009.3
2022-10-20T08:02:22.080Z,1009.3
2022-10-20T08:03:38.320Z,1009.2
2022-10-20T08:04:54.551Z,1009.2
2022-10-20T08:06:10.801Z,1009.2
2022-10-20T08:07:27.039Z,1009.2
2022-10-20T08:08:43.273Z,1009.1
2022-10-20T08:09:59.515Z,1009.1
2022-10-20T08:11:15.752Z,1009.1
2022-10-20T08:12:31.013Z,1009.1
2022-10-20T08:13:47.248Z,1009.1
2022-10-20T08:15:03.496Z,1009.2
2022-10-20T08:16:19.743Z,1009.1
2022-10-20T08:17:35.976Z,1009.1
2022-10-20T08:18:52.202Z,1009.1
2022-10-20T08:20:08.450Z,1009
2022-10-20T08:21:24.696Z,1009
2022-10-20T08:22:40.928Z,1009
2022-10-20T08:23:57.167Z,1009
2022-10-20T08:25:13.407Z,1009
2022-10-20T08:26:29.655Z,1009
2022-10-20T08:27:45.894Z,1009
2022-10-20T08:29:01.149Z,1009
2022-10-20T08:30:17.382Z,1009
2022-10-20T08:31:33.620Z,1009
2022-10-20T08:32:49.863Z,1008.9
2022-10-20T08:34:06.109Z,1009
2022-10-20T08:35:22.340Z,1009
2022-10-20T08:36:38.586Z,1009
2022-10-20T08:37:54.830Z,1008.9
2022-10-20T08:39:11.075Z,1008.9
2022-10-20T08:40:27.313Z,1008.9
2022-10-20T08:41:43.539Z,1008.9
2022-10-20T08:42:59.786Z,1008.9
2022-10-20T08:44:16.026Z,1008.9
2022-10-20T08:45:31.279Z,1008.9
2022-10-20T08:46:47.524Z,1008.9
2022-10-20T08:48:03.751Z,1008.8
2022-10-20T08:49:19.993Z,1008.8
2022-10-20T08:50:36.238Z,1008.7
2022-10-20T08:51:52.472Z,1008.8
2022-10-20T08:53:08.712Z,1008.7
2022-10-20T08:54:24.962Z,1008.7
2022-10-20T08:55:41.196Z,1008.6
2022-10-20T08:56:57.434Z,1008.6
2022-10-20T08:58:13.681Z,1008.6
2022-10-20T08:59:29.913Z,1008.6
2022-10-20T09:00:46.169Z,1008.6
2022-10-20T09:02:01.418Z,1008.7
2022-10-20T09:03:17.650Z,1008.6
2022-10-20T09:04:33.889Z,1008.6
2022-10-20T09:05:50.131Z,1008.6
2022-10-20T09:07:06.366Z,1008.6
2022-10-20T09:08:22.615Z,1008.6
2022-10-20T09:09:38.847Z,1008.6
2022-10-20T09:10:55.086Z,1008.6
2022-10-20T09:12:11.327Z,1008.6
2022-10-20T09:13:27.569Z,1008.6
2022-10-20T09:14:43.813Z,1008.6
2022-10-20T09:16:00.050Z,1008.5
2022-10-20T09:17:16.287Z,1008.5
2022-10-20T09:18:31.553Z,1008.4
2022-10-20T09:19:47.781Z,1008.4
2022-10-20T09:21:04.022Z,1008.3
2022-10-20T09:22:20.258Z,1008.3
2022-10-20T09:23:36.497Z,1008.2
2022-10-20T09:24:52.743Z,1008.3
2022-10-20T09:26:08.977Z,1008.3
2022-10-20T09:27:25.228Z,1008.3
2022-10-20T09:28:41.469Z,1008.3
2022-10-20T09:29:57.695Z,1008.2
2022-10-20T09:31:13.950Z,1008.2
2022-10-20T09:32:30.185Z,1008.2
2022-10-20T09:33:46.420Z,1008.2
2022-10-20T09:35:01.673Z,1008.1
2022-10-20T09:36:17.917Z,1008.2
2022-10-20T09:37:34.157Z,1008.2
2022-10-20T09:38:50.389Z,1008.1
2022-10-20T09:40:06.633Z,1008
2022-10-20T09:41:22.871Z,1008.1
2022-10-20T09:42:39.106Z,1008
2022-10-20T09:43:55.357Z,1008
2022-10-20T09:45:11.588Z,1007.9
2022-10-20T09:46:27.827Z,1007.9
2022-10-20T09:47:44.063Z,1007.9
2022-10-20T09:49:00.305Z,1007.9
2022-10-20T09:50:16.538Z,1007.9
2022-10-20T09:51:31.794Z,1007.9
2022-10-20T09:52:48.030Z,1007.9
2022-10-20T09:54:04.277Z,1007.8
2022-10-20T09:55:20.505Z,1007.8
2022-10-20T09:56:36.751Z,1007.8
2022-10-20T09:57:52.988Z,1007.8
2022-10-20T09:59:09.245Z,1007.8
2022-10-20T10:00:25.479Z,1007.7
2022-10-20T10:01:41.705Z,1007.7
2022-10-20T10:02:57.942Z,1007.7
2022-10-20T10:04:14.185Z,1007.7
2022-10-20T10:05:30.424Z,1007.8
2022-10-20T10:06:46.664Z,1007.7
2022-10-20T10:08:01.938Z,1007.8
2022-10-20T10:09:18.173Z,1007.7
2022-10-20T10:10:34.417Z,1007.8
2022-10-20T10:11:50.646Z,1007.7
2022-10-20T10:13:06.886Z,1007.7
2022-10-20T10:14:23.120Z,1007.7
2022-10-20T10:15:39.370Z,1007.6
2022-10-20T10:16:55.604Z,1007.6
2022-10-20T10:18:11.848Z,1007.6
2022-10-20T10:19:28.084Z,1007.5
2022-10-20T10:20:44.323Z,1007.5
2022-10-20T10:22:00.558Z,1007.5
2022-10-20T10:23:16.798Z,1007.6
2022-10-20T10:24:32.063Z,1007.5
2022-10-20T10:25:48.295Z,1007.5
2022-10-20T10:27:04.529Z,1007.5
2022-10-20T10:28:20.780Z,1007.5
2022-10-20T10:29:37.008Z,1007.5
2022-10-20T10:30:53.252Z,1007.5
2022-10-20T10:32:09.483Z,1007.4
2022-10-20T10:33:25.729Z,1007.4
2022-10-20T10:34:41.972Z,1007.4
2022-10-20T10:35:58.207Z,1007.4
2022-10-20T10:37:14.442Z,1007.4
2022-10-20T10:38:30.679Z,1007.3
2022-10-20T10:39:46.924Z,1007.3
2022-10-20T10:41:02.177Z,1007.3
2022-10-20T10:42:18.422Z,1007.2
2022-10-20T10:43:34.661Z,1007.3
2022-10-20T10:44:50.893Z,1007.2
2022-10-20T10:46:07.138Z,1007.2
2022-10-20T10:47:23.370Z,1007.2
2022-10-20T10:48:39.607Z,1007.2
2022-10-20T10:49:55.850Z,1007.1
2022-10-20T10:51:12.095Z,1007.1
2022-10-20T10:52:28.333Z,1007.1
2022-10-20T10:53:44.563Z,1007.1
2022-10-20T10:55:00.805Z,1007
2022-10-20T10:56:17.044Z,1007
2022-10-20T10:57:32.301Z,1007
2022-10-20T10:58:48.534Z,1007
2022-10-20T11:00:04.790Z,1007
2022-10-20T11:01:21.012Z,1007
2022-10-20T11:02:37.262Z,1007
2022-10-20T11:03:53.499Z,1007
2022-10-20T11:05:08.757Z,1007.1
2022-10-20T11:06:24.991Z,1007
2022-10-20T11:07:41.235Z,1007.1
2022-10-20T11:08:57.474Z,1007
2022-10-20T11:10:13.709Z,1007
2022-10-20T11:11:29.961Z,1007
2022-10-20T11:12:46.184Z,1006.9
2022-10-20T11:14:02.435Z,1006.9
2022-10-20T11:15:18.671Z,1006.9
2022-10-20T11:16:34.909Z,1006.8
2022-10-20T11:17:51.151Z,1006.8
2022-10-20T11:19:07.392Z,1006.7
2022-10-20T11:20:23.634Z,1006.6
2022-10-20T11:21:38.875Z,1006.7
2022-10-20T11:22:55.117Z,1006.6
2022-10-20T11:24:11.349Z,1006.6
2022-10-20T11:25:27.597Z,1006.7
2022-10-20T11:26:43.839Z,1006.6
2022-10-20T11:28:00.073Z,1006.6
2022-10-20T11:29:16.325Z,1006.6
2022-10-20T11:30:32.552Z,1006.5
2022-10-20T11:31:48.792Z,1006.5
2022-10-20T11:33:05.042Z,1006.5
2022-10-20T11:34:21.274Z,1006.5
2022-10-20T11:35:37.515Z,1006.4
2022-10-20T11:36:53.748Z,1006.4
2022-10-20T11:38:09.007Z,1006.4
2022-10-20T11:39:25.251Z,1006.3
2022-10-20T11:40:41.476Z,1006.3
2022-10-20T11:41:57.721Z,1006.3
2022-10-20T11:43:13.968Z,1006.2
2022-10-20T11:44:30.200Z,1006.2
2022-10-20T11:45:46.440Z,1006.2
2022-10-20T11:47:02.671Z,1006.1
2022-10-20T11:48:18.921Z,1006
2022-10-20T11:49:35.157Z,1006.1
2022-10-20T11:50:51.385Z,1006.1
2022-10-20T11:52:07.643Z,1006
2022-10-20T11:53:23.870Z,1005.9
2022-10-20T11:54:39.125Z,1005.9
2022-10-20T11:55:55.360Z,1005.8
2022-10-20T11:57:11.608Z,1005.9
2022-10-20T11:58:27.841Z,1005.9
2022-10-20T11:59:44.081Z,1005.9
2022-10-20T12:01:00.311Z,1005.9
2022-10-20T12:02:16.567Z,1005.9
2022-10-20T12:03:32.795Z,1005.9
2022-10-20T12:04:49.045Z,1005.8
2022-10-20T12:06:05.286Z,1005.8
2022-10-20T12:07:21.511Z,1005.8
2022-10-20T12:08:37.762Z,1005.8
2022-10-20T12:09:54.003Z,1005.8
2022-10-20T12:11:09.246Z,1005.8
2022-10-20T12:12:25.479Z,1005.8
2022-10-20T12:13:41.728Z,1005.7
2022-10-20T12:14:57.973Z,1005.7
2022-10-20T12:16:14.198Z,1005.6
2022-10-20T12:17:30.450Z,1005.6
2022-10-20T12:18:46.674Z,1005.6
2022-10-20T12:20:02.927Z,1005.6
2022-10-20T12:21:19.161Z,1005.5
2022-10-20T12:22:35.402Z,1005.5
2022-10-20T12:23:51.637Z,1005.5
2022-10-20T12:25:07.869Z,1005.5
2022-10-20T12:26:24.125Z,1005.5
2022-10-20T12:27:39.366Z,1005.5
2022-10-20T12:28:55.611Z,1005.4
2022-10-20T12:30:11.848Z,1005.4
2022-10-20T12:31:28.089Z,1005.4
2022-10-20T12:32:44.319Z,1005.3
2022-10-20T12:34:00.561Z,1005.3
2022-10-20T12:35:16.803Z,1005.2
2022-10-20T12:36:33.032Z,1005.2
2022-10-20T12:37:49.277Z,1005.1
2022-10-20T12:39:05.511Z,1005.2
2022-10-20T12:40:21.751Z,1005.2
2022-10-20T12:41:38.001Z,1005.1
2022-10-20T12:42:54.242Z,1005.1
2022-10-20T12:44:09.492Z,1005.1
2022-10-20T12:45:25.742Z,1005
2022-10-20T12:46:41.962Z,1005
2022-10-20T12:47:58.191Z,1005
2022-10-20T12:49:14.430Z,1005
2022-10-20T12:50:30.678Z,1004.9
2022-10-20T12:51:46.913Z,1004.8
2022-10-20T12:53:03.156Z,1004.8
2022-10-20T12:54:19.398Z,1004.8
2022-10-20T12:55:35.636Z,1004.7
2022-10-20T12:56:51.872Z,1004.7
2022-10-20T12:58:08.129Z,1004.6
2022-10-20T12:59:24.356Z,1004.7
2022-10-20T13:00:39.609Z,1004.7
2022-10-20T13:01:55.856Z,1004.8
2022-10-20T13:03:12.084Z,1004.7
2022-10-20T13:04:28.327Z,1004.8
2022-10-20T13:05:44.552Z,1004.9
2022-10-20T13:07:00.798Z,1004.9
2022-10-20T13:08:17.037Z,1004.8
2022-10-20T13:09:33.288Z,1004.8
2022-10-20T13:10:49.514Z,1004.8
2022-10-20T13:12:05.757Z,1004.7
2022-10-20T13:13:21.998Z,1004.7
2022-10-20T13:14:38.232Z,1004.7
2022-10-20T13:15:54.470Z,1004.8
2022-10-20T13:17:09.726Z,1004.8
2022-10-20T13:18:25.970Z,1004.8
2022-10-20T13:19:42.210Z,1004.8
2022-10-20T13:20:58.448Z,1004.9
2022-10-20T13:22:14.691Z,1004.9
2022-10-20T13:23:30.930Z,1004.8
2022-10-20T13:24:47.160Z,1004.9
2022-10-20T13:26:03.400Z,1004.9
2022-10-20T13:27:19.633Z,1004.9
2022-10-20T13:28:35.866Z,1004.8
2022-10-20T13:29:52.124Z,1004.9
2022-10-20T13:31:08.352Z,1004.8
2022-10-20T13:32:24.593Z,1004.9
2022-10-20T13:33:39.849Z,1004.9
2022-10-20T13:34:56.081Z,1004.8
2022-10-20T13:36:12.316Z,1004.9
2022-10-20T13:37:28.581Z,1004.9
2022-10-20T13:38:44.796Z,1004.9
2022-10-20T13:40:01.041Z,1004.9
2022-10-20T13:41:17.276Z,1004.9
2022-10-20T13:42:33.521Z,1004.9
2022-10-20T13:43:49.749Z,1004.8
2022-10-20T13:45:05.984Z,1004.8
2022-10-20T13:46:22.224Z,1004.8
2022-10-20T13:47:38.463Z,1004.8
2022-10-20T13:48:54.709Z,1004.8
2022-10-20T13:50:09.963Z,1004.8
2022-10-20T13:51:26.203Z,1004.8
2022-10-20T13:52:42.438Z,1004.7
2022-10-20T13:53:58.679Z,1004.7
2022-10-20T13:55:14.916Z,1004.6
2022-10-20T13:56:31.162Z,1004.6
2022-10-20T13:57:47.386Z,1004.5
2022-10-20T13:59:03.626Z,1004.5
2022-10-20T14:00:19.878Z,1004.5
2022-10-20T14:01:36.105Z,1004.4
2022-10-20T14:02:52.350Z,1004.3
2022-10-20T14:04:08.593Z,1004.3
2022-10-20T14:05:24.833Z,1004.3
2022-10-20T14:06:40.088Z,1004.2
2022-10-20T14:07:56.309Z,1004.2
2022-10-20T14:09:12.551Z,1004.1
2022-10-20T14:10:28.800Z,1004.1
2022-10-20T14:11:45.022Z,1004
2022-10-20T14:13:01.261Z,1004.1
2022-10-20T14:14:17.515Z,1004.1
2022-10-20T14:15:33.755Z,1004.1
2022-10-20T14:16:49.996Z,1004.2
2022-10-20T14:18:06.219Z,1004.1
2022-10-20T14:19:22.469Z,1004.1
2022-10-20T14:20:38.700Z,1004.1
2022-10-20T14:21:54.939Z,1004.2
2022-10-20T14:23:10.205Z,1004.2
2022-10-20T14:24:26.425Z,1004.1
2022-10-20T14:25:42.669Z,1004.2
2022-10-20T14:26:58.921Z,1004.3
2022-10-20T14:28:15.139Z,1004.3
2022-10-20T14:29:31.392Z,1004.4
2022-10-20T14:30:47.633Z,1004.4
2022-10-20T14:32:03.865Z,1004.4
2022-10-20T14:33:20.120Z,1004.3
2022-10-20T14:34:36.345Z,1004.3
2022-10-20T14:35:52.582Z,1004.3
2022-10-20T14:37:08.818Z,1004.4
2022-10-20T14:38:25.062Z,1004.3
2022-10-20T14:39:40.320Z,1004.4
2022-10-20T14:40:56.542Z,1004.3
2022-10-20T14:42:12.795Z,1004.3
2022-10-20T14:43:29.038Z,1004.3
2022-10-20T14:44:45.281Z,1004.3
2022-10-20T14:46:01.518Z,1004.3
2022-10-20T14:47:17.749Z,1004.2
2022-10-20T14:48:33.989Z,1004.2
2022-10-20T14:49:50.216Z,1004.2
2022-10-20T14:51:06.463Z,1004.2
2022-10-20T14:52:22.698Z,1004.1
2022-10-20T14:53:38.961Z,1004.1
2022-10-20T14:54:55.184Z,1004.1
2022-10-20T14:56:10.448Z,1004.1
2022-10-20T14:57:26.676Z,1004.1
2022-10-20T14:58:42.929Z,1004
2022-10-20T14:59:59.163Z,1004.1
2022-10-20T15:01:15.392Z,1004.1
2022-10-20T15:02:31.642Z,1004.1
2022-10-20T15:03:47.870Z,1004.1
2022-10-20T15:05:04.138Z,1004.1
2022-10-20T15:06:20.361Z,1004.1
2022-10-20T15:07:36.591Z,1004
2022-10-20T15:08:52.838Z,1004.1
2022-10-20T15:10:09.081Z,1004
2022-10-20T15:11:25.320Z,1004.1
2022-10-20T15:12:40.577Z,1004
2022-10-20T15:13:56.824Z,1004
2022-10-20T15:15:13.064Z,1003.9
2022-10-20T15:16:29.310Z,1003.9
2022-10-20T15:17:45.538Z,1003.9
2022-10-20T15:19:01.782Z,1003.9
2022-10-20T15:20:17.034Z,1003.9
2022-10-20T15:21:33.274Z,1003.9
2022-10-20T15:22:49.531Z,1003.9
2022-10-20T15:24:05.748Z,1003.9
2022-10-20T15:25:22.013Z,1004
2022-10-20T15:26:38.237Z,1004
2022-10-20T15:27:54.492Z,1003.9
2022-10-20T15:29:10.713Z,1003.9
2022-10-20T15:30:26.956Z,1003.9
2022-10-20T15:31:43.199Z,1003.8
2022-10-20T15:32:59.422Z,1003.8
2022-10-20T15:34:15.676Z,1003.8
2022-10-20T15:35:31.904Z,1003.8
2022-10-20T15:36:47.159Z,1003.8
2022-10-20T15:38:03.406Z,1003.8
2022-10-20T15:39:19.653Z,1003.8
2022-10-20T15:40:35.879Z,1003.8
2022-10-20T15:41:52.129Z,1003.8
2022-10-20T15:43:08.349Z,1003.9
2022-10-20T15:44:24.608Z,1003.9
2022-10-20T15:45:40.840Z,1003.9
2022-10-20T15:46:57.074Z,1003.9
2022-10-20T15:48:13.307Z,1003.9
2022-10-20T15:49:29.569Z,1003.9
2022-10-20T15:50:45.795Z,1003.9
2022-10-20T15:52:02.030Z,1003.9
2022-10-20T15:53:17.287Z,1003.9
2022-10-20T15:54:33.530Z,1003.9
2022-10-20T15:55:49.766Z,1003.8